createdAt,value
2018-05-27T00:02:05.303Z,16.10
2018-05-27T00:04:33.711Z,17.13
2018-05-27T00:07:06.461Z,15.67
2018-05-27T00:09:34.091Z,17.80
2018-05-27T00:12:05.329Z,18.10
2018-05-27T00:14:33.339Z,18.17
2018-05-27T00:17:00.951Z,19.00
2018-05-27T00:19:29.442Z,19.83
2018-05-27T00:21:56.989Z,18.00
2018-05-27T00:24:25.344Z,19.20
2018-05-27T00:26:53.016Z,18.33
2018-05-27T00:29:20.618Z,18.53
2018-05-27T00:31:49.054Z,19.33
2018-05-27T00:34:16.756Z,18.07
2018-05-27T00:36:44.471Z,19.00
2018-05-27T00:39:12.064Z,19.10
2018-05-27T00:41:39.693Z,18.90
2018-05-27T00:44:07.650Z,18.30
2018-05-27T00:46:36.045Z,18.37
2018-05-27T00:49:07.497Z,20.07
2018-05-27T00:51:35.116Z,19.67
2018-05-27T00:54:02.710Z,17.83
2018-05-27T00:56:30.539Z,18.90
2018-05-27T00:58:58.135Z,19.80
2018-05-27T01:01:25.725Z,19.67
2018-05-27T01:03:54.050Z,19.70
2018-05-27T01:06:21.587Z,17.90
2018-05-27T01:08:49.176Z,17.53
2018-05-27T01:11:16.754Z,18.27
2018-05-27T01:13:44.390Z,17.43
2018-05-27T01:16:11.939Z,16.07
2018-05-27T01:18:40.449Z,17.67
2018-05-27T01:21:08.010Z,18.27
2018-05-27T01:23:35.587Z,17.87
2018-05-27T01:26:04.607Z,17.97
2018-05-27T01:28:32.385Z,17.73
2018-05-27T01:30:59.994Z,16.37
2018-05-27T01:33:28.407Z,16.37
2018-05-27T01:35:55.974Z,17.30
2018-05-27T01:38:23.536Z,16.27
2018-05-27T01:40:51.432Z,15.80
2018-05-27T01:43:19.041Z,16.70
2018-05-27T01:45:47.340Z,17.07
2018-05-27T01:48:15.681Z,16.10
2018-05-27T01:50:43.272Z,15.10
2018-05-27T01:53:10.862Z,15.10
2018-05-27T01:55:39.262Z,16.60
2018-05-27T01:58:06.853Z,16.97
2018-05-27T02:00:34.482Z,15.10
2018-05-27T02:03:02.052Z,14.63
2018-05-27T02:05:29.687Z,15.80
2018-05-27T02:07:58.006Z,15.40
2018-05-27T02:10:25.593Z,16.23
2018-05-27T02:12:53.214Z,16.83
2018-05-27T02:15:21.623Z,16.00
2018-05-27T02:17:49.324Z,17.10
2018-05-27T02:20:18.615Z,16.17
2018-05-27T02:22:46.254Z,16.33
2018-05-27T02:25:13.814Z,16.27
2018-05-27T02:27:42.158Z,15.60
2018-05-27T02:30:09.760Z,15.80
2018-05-27T02:32:38.104Z,15.23
2018-05-27T02:35:06.425Z,15.10
2018-05-27T02:37:35.064Z,16.10
2018-05-27T02:40:02.959Z,15.50
2018-05-27T02:42:30.629Z,16.00
2018-05-27T02:44:58.995Z,15.10
2018-05-27T02:47:26.604Z,14.87
2018-05-27T02:49:54.984Z,13.90
2018-05-27T02:52:23.359Z,14.20
2018-05-27T02:54:50.996Z,13.77
2018-05-27T02:57:18.618Z,14.50
2018-05-27T02:59:46.307Z,13.47
2018-05-27T03:02:13.857Z,14.33
2018-05-27T03:04:42.482Z,13.40
2018-05-27T03:07:10.050Z,13.00
2018-05-27T03:09:37.736Z,13.10
2018-05-27T03:12:06.212Z,13.27
2018-05-27T03:14:33.977Z,14.40
2018-05-27T03:17:01.647Z,13.70
2018-05-27T03:19:29.245Z,13.97
2018-05-27T03:21:56.844Z,13.27
2018-05-27T03:24:24.457Z,12.63
2018-05-27T03:26:52.069Z,13.90
2018-05-27T03:29:19.617Z,14.13
2018-05-27T03:31:47.979Z,14.90
2018-05-27T03:34:15.566Z,14.47
2018-05-27T03:36:43.131Z,15.20
2018-05-27T03:39:11.501Z,14.70
2018-05-27T03:41:39.069Z,13.97
2018-05-27T03:44:06.665Z,13.93
2018-05-27T03:46:34.397Z,14.47
2018-05-27T03:49:03.297Z,14.87
2018-05-27T03:51:31.010Z,15.20
2018-05-27T03:53:58.594Z,15.23
2018-05-27T03:56:26.153Z,14.50
2018-05-27T03:58:54.578Z,13.97
2018-05-27T04:01:22.268Z,14.13
2018-05-27T04:04:02.358Z,15.50
2018-05-27T04:06:41.901Z,14.17
2018-05-27T04:09:09.441Z,14.10
2018-05-27T04:11:38.514Z,15.17
2018-05-27T04:14:06.951Z,13.10
2018-05-27T04:16:34.574Z,14.03
2018-05-27T04:19:02.262Z,14.30
2018-05-27T04:21:30.697Z,13.13
2018-05-27T04:23:58.245Z,12.60
2018-05-27T04:26:26.107Z,11.53
2018-05-27T04:28:53.648Z,11.60
2018-05-27T04:31:21.238Z,10.73
2018-05-27T04:33:49.642Z,10.13
2018-05-27T04:36:17.216Z,9.90
2018-05-27T04:38:44.790Z,10.53
2018-05-27T04:41:12.437Z,10.97
2018-05-27T04:43:40.411Z,9.63
2018-05-27T04:46:07.967Z,8.63
2018-05-27T04:48:35.516Z,9.37
2018-05-27T04:51:03.881Z,9.90
2018-05-27T04:53:32.254Z,8.70
2018-05-27T04:55:59.857Z,8.80
2018-05-27T04:58:28.248Z,9.10
2018-05-27T05:00:56.378Z,8.90
2018-05-27T05:03:23.960Z,9.10
2018-05-27T05:05:51.585Z,8.70
2018-05-27T05:08:19.133Z,9.20
2018-05-27T05:10:46.861Z,8.70
2018-05-27T05:13:14.449Z,10.30
2018-05-27T05:15:42.870Z,8.90
2018-05-27T05:18:10.825Z,8.90
2018-05-27T05:20:38.386Z,8.27
2018-05-27T05:23:06.612Z,8.33
2018-05-27T05:25:34.185Z,8.40
2018-05-27T05:28:01.808Z,8.70
2018-05-27T05:30:29.410Z,8.43
2018-05-27T05:32:56.983Z,9.20
2018-05-27T05:35:24.701Z,9.13
2018-05-27T05:37:52.328Z,8.00
2018-05-27T05:40:19.897Z,8.10
2018-05-27T05:42:48.321Z,9.67
2018-05-27T05:45:15.882Z,8.90
2018-05-27T05:47:44.319Z,8.67
2018-05-27T05:50:12.038Z,8.60
2018-05-27T05:52:39.586Z,9.60
2018-05-27T05:55:07.920Z,9.47
2018-05-27T05:57:35.478Z,8.73
2018-05-27T06:00:04.229Z,10.40
2018-05-27T06:02:32.700Z,9.93
2018-05-27T06:05:00.298Z,9.53
2018-05-27T06:07:28.628Z,9.77
2018-05-27T06:09:56.226Z,10.33
2018-05-27T06:12:23.778Z,8.43
2018-05-27T06:14:51.418Z,9.50
2018-05-27T06:17:19.002Z,8.90
2018-05-27T06:19:46.990Z,9.63
2018-05-27T06:22:14.580Z,8.80
2018-05-27T06:24:43.060Z,9.47
2018-05-27T06:27:11.650Z,9.57
2018-05-27T06:29:40.029Z,9.60
2018-05-27T06:32:07.672Z,9.53
2018-05-27T06:34:36.053Z,9.77
2018-05-27T06:37:03.672Z,10.10
2018-05-27T06:39:32.157Z,10.37
2018-05-27T06:42:00.595Z,10.53
2018-05-27T06:44:28.913Z,9.30
2018-05-27T06:46:57.399Z,9.73
2018-05-27T06:49:25.744Z,10.60
2018-05-27T06:51:53.305Z,9.73
2018-05-27T06:54:21.039Z,9.17
2018-05-27T06:56:48.634Z,10.13
2018-05-27T06:59:16.238Z,10.93
2018-05-27T07:01:43.909Z,10.27
2018-05-27T07:04:11.461Z,10.40
2018-05-27T07:06:39.061Z,11.00
2018-05-27T07:09:07.629Z,10.63
2018-05-27T07:11:35.998Z,9.80
2018-05-27T07:14:03.713Z,9.43
2018-05-27T07:16:32.033Z,10.17
2018-05-27T07:18:59.642Z,8.57
2018-05-27T07:21:27.322Z,9.47
2018-05-27T07:23:55.019Z,9.30
2018-05-27T07:26:23.179Z,8.90
2018-05-27T07:28:50.825Z,7.53
2018-05-27T07:31:19.356Z,8.50
2018-05-27T07:33:47.535Z,7.70
2018-05-27T07:36:15.077Z,7.40
2018-05-27T07:38:42.647Z,7.47
2018-05-27T07:41:10.300Z,7.93
2018-05-27T07:43:37.956Z,7.50
2018-05-27T07:46:06.391Z,7.33
2018-05-27T07:48:33.934Z,7.87
2018-05-27T07:51:01.552Z,8.13
2018-05-27T07:53:29.150Z,7.80
2018-05-27T07:55:57.490Z,8.23
2018-05-27T07:58:25.908Z,7.37
2018-05-27T08:00:53.463Z,7.20
2018-05-27T08:03:21.129Z,7.50
2018-05-27T08:05:49.040Z,7.43
2018-05-27T08:08:16.626Z,7.23
2018-05-27T08:10:44.192Z,7.60
2018-05-27T08:13:11.782Z,7.67
2018-05-27T08:15:39.419Z,7.83
2018-05-27T08:18:07.298Z,7.40
2018-05-27T08:20:34.954Z,6.63
2018-05-27T08:23:03.351Z,7.10
2018-05-27T08:25:31.709Z,7.17
2018-05-27T08:27:59.396Z,7.17
2018-05-27T08:30:26.932Z,7.30
2018-05-27T08:32:54.556Z,7.20
2018-05-27T08:35:22.171Z,6.20
2018-05-27T08:37:50.537Z,5.90
2018-05-27T08:40:19.303Z,6.13
2018-05-27T08:42:47.698Z,6.10
2018-05-27T08:45:15.361Z,6.60
2018-05-27T08:47:43.072Z,6.50
2018-05-27T08:50:10.707Z,7.60
2018-05-27T08:52:39.233Z,7.10
2018-05-27T08:55:07.587Z,5.93
2018-05-27T08:57:35.258Z,5.87
2018-05-27T09:00:04.507Z,6.60
2018-05-27T09:02:32.307Z,7.03
2018-05-27T09:05:00.411Z,7.13
2018-05-27T09:07:28.798Z,7.40
2018-05-27T09:09:57.274Z,6.30
2018-05-27T09:12:24.847Z,6.47
2018-05-27T09:14:52.398Z,6.67
2018-05-27T09:17:20.167Z,6.97
2018-05-27T09:19:47.766Z,6.47
2018-05-27T09:22:16.266Z,6.27
2018-05-27T09:24:43.825Z,5.73
2018-05-27T09:27:12.167Z,5.20
2018-05-27T09:29:39.903Z,5.00
2018-05-27T09:32:07.820Z,5.50
2018-05-27T09:34:36.771Z,4.60
2018-05-27T09:37:04.400Z,5.53
2018-05-27T09:39:32.011Z,5.57
2018-05-27T09:42:00.480Z,5.17
2018-05-27T09:44:28.132Z,4.60
2018-05-27T09:46:56.638Z,4.70
2018-05-27T09:49:24.197Z,5.30
2018-05-27T09:51:52.231Z,5.00
2018-05-27T09:54:19.818Z,5.60
2018-05-27T09:56:48.276Z,4.80
2018-05-27T09:59:15.949Z,5.83
2018-05-27T10:01:43.563Z,4.70
2018-05-27T10:04:11.588Z,5.47
2018-05-27T10:06:40.340Z,5.77
2018-05-27T10:09:07.903Z,6.53
2018-05-27T10:11:35.685Z,5.77
2018-05-27T10:14:03.570Z,6.53
2018-05-27T10:16:31.292Z,4.77
2018-05-27T10:18:59.009Z,5.10
2018-05-27T10:21:26.562Z,5.30
2018-05-27T10:23:54.231Z,5.07
2018-05-27T10:26:21.827Z,5.40
2018-05-27T10:28:49.582Z,6.07
2018-05-27T10:31:17.285Z,6.23
2018-05-27T10:33:45.030Z,7.00
2018-05-27T10:36:13.355Z,7.00
2018-05-27T10:38:41.705Z,7.03
2018-05-27T10:41:09.338Z,6.73
2018-05-27T10:43:37.043Z,6.43
2018-05-27T10:46:04.754Z,6.70
2018-05-27T10:48:32.412Z,7.37
2018-05-27T10:51:00.771Z,6.40
2018-05-27T10:53:29.221Z,6.57
2018-05-27T10:55:56.963Z,7.40
2018-05-27T10:58:24.532Z,7.17
2018-05-27T11:00:52.163Z,7.80
2018-05-27T11:05:53.848Z,7.50
2018-05-27T11:08:21.450Z,6.77
2018-05-27T11:10:49.857Z,6.07
2018-05-27T11:13:17.507Z,8.00
2018-05-27T11:15:45.133Z,6.37
2018-05-27T11:18:12.725Z,5.90
2018-05-27T11:20:41.172Z,7.30
2018-05-27T11:23:08.811Z,6.60
2018-05-27T11:25:36.510Z,6.00
2018-05-27T11:28:04.134Z,5.10
2018-05-27T11:30:31.776Z,6.17
2018-05-27T11:33:00.172Z,5.70
2018-05-27T11:35:28.085Z,6.67
2018-05-27T11:37:55.734Z,6.23
2018-05-27T11:40:24.469Z,6.60
2018-05-27T11:42:52.063Z,6.43
2018-05-27T11:45:20.532Z,6.10
2018-05-27T11:47:48.254Z,7.37
2018-05-27T11:50:15.932Z,6.33
2018-05-27T11:52:43.525Z,6.60
2018-05-27T11:55:11.264Z,8.27
2018-05-27T11:57:38.895Z,7.30
2018-05-27T12:00:07.643Z,7.00
2018-05-27T12:02:35.265Z,5.83
2018-05-27T12:05:03.645Z,6.00
2018-05-27T12:07:31.271Z,5.40
2018-05-27T12:09:58.843Z,5.20
2018-05-27T12:12:26.441Z,6.80
2018-05-27T12:14:54.809Z,5.80
2018-05-27T12:17:23.234Z,5.50
2018-05-27T12:19:50.797Z,5.37
2018-05-27T12:22:18.481Z,5.10
2018-05-27T12:24:47.227Z,5.87
2018-05-27T12:27:15.623Z,5.57
2018-05-27T12:29:44.106Z,5.43
2018-05-27T12:32:13.387Z,6.20
2018-05-27T12:34:40.955Z,6.17
2018-05-27T12:37:08.579Z,6.90
2018-05-27T12:39:36.348Z,5.47
2018-05-27T12:42:04.525Z,5.67
2018-05-27T12:44:32.858Z,6.37
2018-05-27T12:47:00.604Z,5.93
2018-05-27T12:49:28.770Z,6.17
2018-05-27T12:51:56.451Z,5.90
2018-05-27T12:54:24.799Z,5.87
2018-05-27T12:56:52.507Z,6.37
2018-05-27T12:59:20.918Z,4.60
2018-05-27T13:01:48.477Z,5.73
2018-05-27T13:04:16.093Z,5.10
2018-05-27T13:06:43.792Z,5.30
2018-05-27T13:09:12.296Z,5.23
2018-05-27T13:11:39.953Z,5.03
2018-05-27T13:14:08.059Z,4.63
2018-05-27T13:16:36.449Z,4.73
2018-05-27T13:19:05.001Z,4.80
2018-05-27T13:21:33.430Z,5.07
2018-05-27T13:24:01.784Z,4.47
2018-05-27T13:26:29.633Z,4.37
2018-05-27T13:28:57.344Z,5.30
2018-05-27T13:31:25.662Z,4.63
2018-05-27T13:33:53.336Z,4.47
2018-05-27T13:36:21.090Z,4.63
2018-05-27T13:38:48.682Z,4.50
2018-05-27T13:41:17.158Z,4.80
2018-05-27T13:43:44.707Z,5.00
2018-05-27T13:46:13.413Z,4.60
2018-05-27T13:48:41.057Z,4.47
2018-05-27T13:51:09.419Z,4.20
2018-05-27T13:53:37.044Z,4.20
2018-05-27T13:56:04.589Z,4.80
2018-05-27T13:58:32.483Z,4.23
2018-05-27T14:01:00.069Z,4.07
2018-05-27T14:03:27.724Z,5.10
2018-05-27T14:05:55.311Z,4.63
2018-05-27T14:08:22.917Z,4.50
2018-05-27T14:10:51.566Z,4.30
2018-05-27T14:13:19.183Z,3.60
2018-05-27T14:15:47.555Z,4.07
2018-05-27T14:18:15.963Z,3.93
2018-05-27T14:20:43.722Z,4.40
2018-05-27T14:23:11.433Z,3.90
2018-05-27T14:25:39.027Z,3.83
2018-05-27T14:28:06.603Z,4.50
2018-05-27T14:30:36.030Z,4.17
2018-05-27T14:33:03.585Z,4.23
2018-05-27T14:35:32.012Z,4.60
2018-05-27T14:37:59.577Z,3.63
2018-05-27T14:40:27.229Z,3.30
2018-05-27T14:42:54.911Z,3.70
2018-05-27T14:45:22.627Z,3.77
2018-05-27T14:47:51.084Z,3.97
2018-05-27T14:50:18.733Z,3.87
2018-05-27T14:52:46.655Z,3.93
2018-05-27T14:55:14.988Z,4.03
2018-05-27T14:57:42.692Z,4.23
2018-05-27T15:00:10.315Z,3.60
2018-05-27T15:02:38.437Z,3.70
2018-05-27T15:05:06.524Z,6.30
2018-05-27T15:07:34.917Z,3.97
2018-05-27T15:10:02.549Z,3.67
2018-05-27T15:12:30.166Z,3.43
2018-05-27T15:14:58.733Z,3.93
2018-05-27T15:17:26.343Z,3.77
2018-05-27T15:19:54.400Z,3.97
2018-05-27T15:22:22.146Z,4.37
2018-05-27T15:24:49.828Z,3.80
2018-05-27T15:27:18.246Z,4.10
2018-05-27T15:29:45.818Z,3.87
2018-05-27T15:32:13.531Z,3.67
2018-05-27T15:34:41.140Z,4.20
2018-05-27T15:37:09.516Z,4.10
2018-05-27T15:39:37.063Z,3.90
2018-05-27T15:42:06.199Z,4.10
2018-05-27T15:44:34.013Z,4.53
2018-05-27T15:47:01.771Z,5.73
2018-05-27T15:49:29.360Z,5.03
2018-05-27T15:51:57.025Z,4.00
2018-05-27T15:54:24.641Z,4.10
2018-05-27T15:56:52.212Z,4.10
2018-05-27T15:59:19.997Z,4.30
2018-05-27T16:01:47.581Z,4.53
2018-05-27T16:04:15.237Z,4.63
2018-05-27T16:06:43.566Z,3.80
2018-05-27T16:09:11.957Z,3.63
2018-05-27T16:11:39.920Z,4.50
2018-05-27T16:14:08.301Z,4.00
2018-05-27T16:16:36.025Z,4.40
2018-05-27T16:19:03.699Z,3.97
2018-05-27T16:21:31.381Z,4.00
2018-05-27T16:23:59.101Z,3.67
2018-05-27T16:26:26.665Z,3.53
2018-05-27T16:28:54.230Z,4.07
2018-05-27T16:31:21.917Z,4.00
2018-05-27T16:33:49.597Z,4.10
2018-05-27T16:36:17.481Z,4.27
2018-05-27T16:38:45.047Z,3.93
2018-05-27T16:41:12.679Z,4.37
2018-05-27T16:43:40.438Z,3.83
2018-05-27T16:46:07.977Z,4.77
2018-05-27T16:48:35.599Z,4.10
2018-05-27T16:51:03.165Z,3.90
2018-05-27T16:53:31.505Z,4.83
2018-05-27T16:55:59.926Z,4.10
2018-05-27T16:58:27.543Z,4.30
2018-05-27T17:00:55.845Z,4.70
2018-05-27T17:03:24.309Z,5.87
2018-05-27T17:05:51.867Z,4.90
2018-05-27T17:08:19.487Z,4.77
2018-05-27T17:10:47.045Z,5.13
2018-05-27T17:13:15.558Z,4.53
2018-05-27T17:15:43.210Z,4.57
2018-05-27T17:18:10.937Z,5.53
2018-05-27T17:20:38.989Z,5.40
2018-05-27T17:23:06.646Z,5.30
2018-05-27T17:25:34.283Z,5.57
2018-05-27T17:28:02.071Z,5.07
2018-05-27T17:30:29.680Z,5.10
2018-05-27T17:32:57.306Z,5.33
2018-05-27T17:35:24.904Z,5.33
2018-05-27T17:37:52.561Z,5.50
2018-05-27T17:40:20.982Z,5.60
2018-05-27T17:42:49.329Z,5.23
2018-05-27T17:45:16.949Z,4.70
2018-05-27T17:47:45.299Z,4.97
2018-05-27T17:50:12.869Z,5.20
2018-05-27T17:52:43.549Z,5.50
2018-05-27T17:55:11.349Z,5.50
2018-05-27T17:57:39.203Z,5.20
2018-05-27T18:00:06.886Z,4.53
2018-05-27T18:02:34.469Z,5.57
2018-05-27T18:05:02.312Z,5.00
2018-05-27T18:07:29.952Z,5.17
2018-05-27T18:09:58.425Z,5.43
2018-05-27T18:12:26.866Z,4.97
2018-05-27T18:14:54.434Z,4.93
2018-05-27T18:17:22.850Z,4.70
2018-05-27T18:19:50.494Z,5.93
2018-05-27T18:22:18.185Z,4.27
2018-05-27T18:24:45.752Z,4.60
2018-05-27T18:27:13.343Z,4.57
2018-05-27T18:29:41.773Z,4.90
2018-05-27T18:32:09.375Z,5.50
2018-05-27T18:34:36.969Z,4.90
2018-05-27T18:37:04.553Z,4.80
2018-05-27T18:39:32.585Z,4.87
2018-05-27T18:42:00.929Z,5.00
2018-05-27T18:44:28.553Z,5.03
2018-05-27T18:46:56.944Z,5.70
2018-05-27T18:49:24.802Z,5.13
2018-05-27T18:51:53.520Z,5.10
2018-05-27T18:54:21.191Z,4.60
2018-05-27T18:56:49.021Z,5.57
2018-05-27T18:59:17.567Z,5.37
2018-05-27T19:01:45.108Z,6.10
2018-05-27T19:04:12.697Z,6.33
2018-05-27T19:06:40.267Z,5.50
2018-05-27T19:09:07.991Z,5.90
2018-05-27T19:11:36.477Z,5.40
2018-05-27T19:14:04.948Z,7.30
2018-05-27T19:16:33.543Z,5.47
2018-05-27T19:19:01.116Z,5.60
2018-05-27T19:21:29.545Z,5.63
2018-05-27T19:23:57.755Z,5.70
2018-05-27T19:26:25.569Z,5.60
2018-05-27T19:28:53.123Z,5.50
2018-05-27T19:31:22.686Z,5.93
2018-05-27T19:33:50.316Z,5.73
2018-05-27T19:36:18.723Z,6.57
2018-05-27T19:38:46.303Z,7.60
2018-05-27T19:41:13.920Z,6.90
2018-05-27T19:43:42.221Z,7.07
2018-05-27T19:46:09.983Z,6.30
2018-05-27T19:48:38.470Z,6.67
2018-05-27T19:51:07.526Z,6.60
2018-05-27T19:53:35.945Z,7.50
2018-05-27T19:56:04.289Z,7.40
2018-05-27T19:58:31.881Z,7.00
2018-05-27T20:00:59.515Z,8.37
2018-05-27T20:03:27.545Z,8.03
2018-05-27T20:05:55.994Z,9.53
2018-05-27T20:08:23.618Z,9.37
2018-05-27T20:10:51.212Z,7.90
2018-05-27T20:13:18.797Z,8.00
2018-05-27T20:15:46.450Z,8.30
2018-05-27T20:18:14.060Z,8.17
2018-05-27T20:20:42.504Z,7.87
2018-05-27T20:23:10.173Z,7.97
2018-05-27T20:25:38.613Z,8.97
2018-05-27T20:28:06.995Z,10.23
2018-05-27T20:30:35.754Z,8.00
2018-05-27T20:33:06.931Z,7.70
2018-05-27T20:35:34.556Z,7.77
2018-05-27T20:38:05.678Z,8.50
2018-05-27T20:40:33.270Z,8.30
2018-05-27T20:43:00.923Z,9.77
2018-05-27T20:45:29.964Z,8.80
2018-05-27T20:47:58.491Z,8.50
2018-05-27T20:50:26.066Z,8.77
2018-05-27T20:52:53.647Z,9.57
2018-05-27T20:55:21.286Z,10.20
2018-05-27T20:57:49.220Z,9.43
2018-05-27T21:00:16.865Z,11.00
2018-05-27T21:02:44.472Z,10.47
2018-05-27T21:05:13.009Z,12.40
2018-05-27T21:07:40.637Z,11.47
2018-05-27T21:10:09.177Z,11.20
2018-05-27T21:12:37.271Z,10.97
2018-05-27T21:15:06.500Z,11.63
2018-05-27T21:17:34.871Z,11.27
2018-05-27T21:20:04.534Z,11.20
2018-05-27T21:22:33.333Z,10.97
2018-05-27T21:25:03.201Z,11.83
2018-05-27T21:27:31.262Z,11.90
2018-05-27T21:29:58.907Z,10.90
2018-05-27T21:32:26.528Z,11.40
2018-05-27T21:34:55.178Z,11.50
2018-05-27T21:37:22.813Z,11.17
2018-05-27T21:39:51.327Z,10.13
2018-05-27T21:42:19.673Z,11.50
2018-05-27T21:44:47.277Z,9.80
2018-05-27T21:47:14.909Z,11.13
2018-05-27T21:49:42.445Z,9.57
2018-05-27T21:52:10.879Z,9.67
2018-05-27T21:54:38.441Z,9.47
2018-05-27T21:57:06.659Z,12.33
2018-05-27T21:59:34.325Z,11.43
2018-05-27T22:02:05.798Z,10.47
2018-05-27T22:04:33.421Z,10.80
2018-05-27T22:07:01.137Z,11.10
2018-05-27T22:09:30.040Z,11.47
2018-05-27T22:11:58.355Z,11.70
2018-05-27T22:14:25.935Z,10.80
2018-05-27T22:16:53.591Z,10.07
2018-05-27T22:19:21.609Z,9.87
2018-05-27T22:21:49.189Z,11.03
2018-05-27T22:24:17.184Z,10.17
2018-05-27T22:26:44.800Z,9.77
2018-05-27T22:29:12.695Z,10.57
2018-05-27T22:31:40.273Z,10.60
2018-05-27T22:34:08.056Z,10.33
2018-05-27T22:36:36.406Z,10.77
2018-05-27T22:39:07.143Z,10.13
2018-05-27T22:41:34.733Z,10.53
2018-05-27T22:44:02.934Z,11.23
2018-05-27T22:46:30.524Z,10.83
2018-05-27T22:48:58.286Z,11.77
2018-05-27T22:51:25.930Z,12.10
2018-05-27T22:53:54.410Z,12.10
2018-05-27T22:56:22.726Z,10.93
2018-05-27T22:58:50.326Z,11.20
2018-05-27T23:01:17.922Z,10.67
2018-05-27T23:03:45.502Z,10.33
2018-05-27T23:06:13.804Z,9.47
2018-05-27T23:08:41.709Z,10.37
2018-05-27T23:11:09.304Z,10.47
2018-05-27T23:13:36.887Z,10.83
2018-05-27T23:16:05.901Z,9.70
2018-05-27T23:18:33.438Z,10.93
2018-05-27T23:21:04.673Z,10.10
2018-05-27T23:23:32.269Z,11.47
2018-05-27T23:26:00.622Z,11.40
2018-05-27T23:28:28.222Z,10.73
2018-05-27T23:30:56.573Z,10.83
2018-05-27T23:33:24.159Z,10.60
2018-05-27T23:35:52.713Z,11.07
2018-05-27T23:38:20.315Z,9.60
2018-05-27T23:40:47.884Z,10.47
2018-05-27T23:43:16.294Z,12.77
2018-05-27T23:45:43.855Z,10.87
2018-05-27T23:48:11.511Z,12.20
2018-05-27T23:50:39.880Z,11.17
2018-05-27T23:53:07.490Z,11.20
2018-05-27T23:55:35.163Z,11.13
2018-05-27T23:58:03.170Z,10.10
